Time;durP1;ratioP1;P1;durP2;ratioP2;P2;SDS_P1;SDS_P2;PMS_P1;PMS_P2;Temp;Humidity;BMP_temperature;BMP_pressure;BME280_temperature;BME280_humidity;BME280_pressure;Samples;Min_cycle;Max_cycle;Signal;HPM_P1;HPM_P2
2023/05/28 00:01:58;;;;;;;17.23;5.10;;;;;;;8.60;100.00;101731.94;5034259;28;20851;-85
2023/05/28 00:04:24;;;;;;;18.67;5.90;;;;;;;8.60;100.00;101726.59;5039931;28;20060;-85
2023/05/28 00:06:52;;;;;;;11.80;5.03;;;;;;;8.59;100.00;101719.56;5040651;28;20395;-84
2023/05/28 00:09:19;;;;;;;13.02;5.47;;;;;;;8.55;100.00;101729.63;5033132;28;20033;-84
2023/05/28 00:11:44;;;;;;;15.63;6.70;;;;;;;8.55;100.00;101723.47;5025244;28;20037;-84
2023/05/28 00:14:09;;;;;;;14.67;5.93;;;;;;;8.54;100.00;101729.75;5012088;28;20027;-85
2023/05/28 00:16:37;;;;;;;13.57;5.33;;;;;;;8.56;100.00;101733.97;5035030;28;20033;-85
2023/05/28 00:19:03;;;;;;;14.75;6.20;;;;;;;8.53;100.00;101730.75;5032834;28;20024;-84
2023/05/28 00:21:28;;;;;;;;;;;;;;;8.52;100.00;101734.34;5026880;28;20128;-85
2023/05/28 00:23:53;;;;;;;;;;;;;;;8.55;100.00;101737.63;5033194;28;20021;-85
2023/05/28 00:26:19;;;;;;;20.33;5.70;;;;;;;8.51;100.00;101735.34;5045308;28;19919;-85
2023/05/28 00:28:47;;;;;;;19.00;5.65;;;;;;;8.48;100.00;101728.44;5022196;28;20018;-84
2023/05/28 00:31:13;;;;;;;19.52;5.88;;;;;;;8.48;100.00;101736.44;5023703;28;20047;-85
2023/05/28 00:33:38;;;;;;;12.07;5.73;;;;;;;8.46;100.00;101741.03;5026935;28;20079;-85
2023/05/28 00:36:04;;;;;;;19.13;5.28;;;;;;;8.43;100.00;101736.81;5035060;28;20020;-84
2023/05/28 00:38:29;;;;;;;13.60;5.10;;;;;;;8.50;100.00;101747.81;5023078;28;20500;-86
2023/05/28 00:40:55;;;;;;;13.43;6.27;;;;;;;8.46;100.00;101743.69;5031292;28;20069;-85
2023/05/28 00:43:20;;;;;;;15.70;5.40;;;;;;;8.44;100.00;101749.13;5010897;28;20037;-86
2023/05/28 00:45:49;;;;;;;18.08;8.05;;;;;;;8.39;100.00;101745.13;5039622;28;20091;-85
2023/05/28 00:48:15;;;;;;;21.70;6.05;;;;;;;8.31;100.00;101728.91;5023855;28;20047;-85
2023/05/28 00:50:42;;;;;;;14.93;5.30;;;;;;;8.29;100.00;101729.06;5034366;28;20037;-85
2023/05/28 00:53:08;;;;;;;14.75;6.13;;;;;;;8.33;100.00;101730.50;5012597;28;20295;-85
2023/05/28 00:55:34;;;;;;;19.30;5.47;;;;;;;8.33;100.00;101734.97;5010278;28;20080;-85
2023/05/28 00:58:05;;;;;;;;;;;;;;;8.28;100.00;101719.38;5017801;28;20115;-84
2023/05/28 01:00:32;;;;;;;20.15;6.00;;;;;;;8.23;100.00;101708.25;5018750;28;19917;-83
2023/05/28 01:02:58;;;;;;;13.95;5.47;;;;;;;8.22;100.00;101711.91;5032523;28;20075;-83
2023/05/28 01:05:24;;;;;;;22.38;5.57;;;;;;;8.23;100.00;101710.94;5016946;28;20029;-84
2023/05/28 01:07:50;;;;;;;15.00;4.70;;;;;;;8.17;100.00;101701.63;5024868;28;20405;-83
2023/05/28 01:10:16;;;;;;;12.77;5.53;;;;;;;8.16;100.00;101705.25;5047411;28;20131;-84
2023/05/28 01:12:43;;;;;;;12.45;5.78;;;;;;;8.13;100.00;101702.00;5017960;28;20119;-83
2023/05/28 01:15:09;;;;;;;16.75;5.50;;;;;;;8.15;100.00;101716.03;5012458;28;20035;-83
2023/05/28 01:17:38;;;;;;;16.90;5.38;;;;;;;8.11;100.00;101709.25;5021674;28;20415;-84
2023/05/28 01:20:13;;;;;;;12.20;5.43;;;;;;;8.08;100.00;101702.38;5034389;28;20063;-83
2023/05/28 01:22:45;;;;;;;13.57;5.05;;;;;;;8.04;100.00;101714.22;5009755;28;20037;-83
2023/05/28 01:25:12;;;;;;;15.13;5.72;;;;;;;7.96;100.00;101717.50;5034373;28;20032;-83
2023/05/28 01:27:39;;;;;;;13.13;5.82;;;;;;;7.96;100.00;101711.31;5034578;28;20109;-84
2023/05/28 01:30:09;;;;;;;17.65;5.30;;;;;;;7.93;100.00;101701.75;5033956;28;20086;-83
2023/05/28 01:32:36;;;;;;;18.95;6.57;;;;;;;7.97;100.00;101708.53;5010603;28;20026;-83
2023/05/28 01:35:03;;;;;;;17.33;5.95;;;;;;;7.92;100.00;101694.78;5029876;28;20028;-83
2023/05/28 01:37:30;;;;;;;16.77;5.88;;;;;;;7.88;100.00;101682.69;4997731;28;20152;-83
2023/05/28 01:39:57;;;;;;;14.63;5.32;;;;;;;7.84;100.00;101683.88;5007840;28;20124;-84
2023/05/28 01:42:23;;;;;;;21.73;6.78;;;;;;;7.82;100.00;101684.03;5020343;28;20547;-82
2023/05/28 01:44:50;;;;;;;16.70;7.30;;;;;;;7.81;100.00;101689.44;5031125;28;20021;-84
2023/05/28 01:47:16;;;;;;;18.77;6.05;;;;;;;7.81;100.00;101695.59;5016550;28;20656;-83
2023/05/28 01:49:42;;;;;;;14.90;6.30;;;;;;;7.77;100.00;101695.97;5026719;28;20045;-83
2023/05/28 01:52:08;;;;;;;16.05;6.93;;;;;;;7.77;100.00;101703.94;5011875;28;20143;-84
2023/05/28 01:54:34;;;;;;;11.17;5.20;;;;;;;7.78;100.00;101703.00;5020258;28;20110;-84
2023/05/28 01:57:00;;;;;;;16.08;6.10;;;;;;;7.66;100.00;101693.34;5002005;28;20053;-84
2023/05/28 02:01:54;;;;;;;18.42;6.03;;;;;;;7.70;100.00;101722.22;5065596;28;20885;-74
2023/05/28 02:04:20;;;;;;;13.60;7.10;;;;;;;7.79;100.00;101732.09;5032287;28;20032;-73
2023/05/28 02:06:46;;;;;;;12.10;6.07;;;;;;;7.80;100.00;101732.97;5041080;28;20040;-73
2023/05/28 02:09:11;;;;;;;18.08;5.35;;;;;;;7.72;100.00;101727.38;5057975;28;20035;-76
2023/05/28 02:11:40;;;;;;;14.23;6.25;;;;;;;7.70;100.00;101737.28;5033069;28;20036;-76
2023/05/28 02:14:06;;;;;;;15.13;5.83;;;;;;;7.68;100.00;101731.25;5048665;28;20037;-74
2023/05/28 02:16:31;;;;;;;14.07;5.90;;;;;;;7.68;100.00;101721.47;5049170;28;20033;-74
2023/05/28 02:19:00;;;;;;;13.67;5.47;;;;;;;7.68;100.00;101726.78;5040622;28;20033;-74
2023/05/28 02:21:25;;;;;;;12.65;5.45;;;;;;;7.66;100.00;101717.25;5048937;28;20016;-73
2023/05/28 02:23:51;;;;;;;14.57;5.87;;;;;;;7.61;100.00;101713.13;5038109;28;20039;-73
2023/05/28 02:26:17;;;;;;;21.63;6.43;;;;;;;7.59;100.00;101701.78;5066894;28;20399;-74
2023/05/28 02:28:43;;;;;;;19.05;6.03;;;;;;;7.57;100.00;101705.53;5060859;28;20039;-74
2023/05/28 02:31:12;;;;;;;11.45;6.50;;;;;;;7.55;100.00;101702.97;5028574;28;20425;-73
2023/05/28 02:33:39;;;;;;;14.20;6.50;;;;;;;7.54;100.00;101716.41;5038045;28;20044;-74
2023/05/28 02:36:07;;;;;;;10.50;5.28;;;;;;;7.56;100.00;101714.44;5040451;28;20051;-76
2023/05/28 02:38:33;;;;;;;18.27;6.45;;;;;;;7.71;100.00;101717.72;5031973;28;20056;-76
2023/05/28 02:40:59;;;;;;;14.88;7.15;;;;;;;7.73;100.00;101726.44;5046090;28;20063;-76
2023/05/28 02:43:24;;;;;;;20.80;7.17;;;;;;;7.77;100.00;101733.19;5028347;28;20094;-73
2023/05/28 02:45:50;;;;;;;21.50;7.50;;;;;;;7.83;100.00;101754.00;5023812;28;20271;-75
2023/05/28 02:48:15;;;;;;;16.20;7.73;;;;;;;7.81;100.00;101755.91;5058038;28;20028;-77
2023/05/28 02:50:40;;;;;;;12.40;6.40;;;;;;;7.77;100.00;101749.13;5048660;28;20086;-76
2023/05/28 02:53:32;;;;;;;14.75;6.72;;;;;;;7.75;100.00;101745.75;5046866;28;20051;-76
2023/05/28 02:55:58;;;;;;;12.68;6.25;;;;;;;7.85;100.00;101751.22;5047510;28;20036;-77
2023/05/28 02:58:28;;;;;;;15.93;7.17;;;;;;;7.92;100.00;101753.25;5027566;28;20844;-76
2023/05/28 03:00:54;;;;;;;15.98;6.72;;;;;;;7.93;100.00;101759.44;5026059;28;20294;-77
2023/05/28 03:03:19;;;;;;;14.82;6.65;;;;;;;7.90;100.00;101754.34;5043661;28;20024;-76
2023/05/28 03:05:45;;;;;;;19.47;6.77;;;;;;;7.87;100.00;101752.78;5048093;28;20039;-75
2023/05/28 03:08:11;;;;;;;16.42;6.85;;;;;;;7.86;100.00;101748.41;5036498;28;20649;-76
2023/05/28 03:10:38;;;;;;;21.40;8.65;;;;;;;7.82;100.00;101755.81;5043838;28;20132;-74
2023/05/28 03:13:03;;;;;;;20.50;6.20;;;;;;;7.80;100.00;101752.41;5047489;28;20123;-73
2023/05/28 03:15:30;;;;;;;14.98;8.15;;;;;;;7.80;100.00;101748.91;5024897;28;20090;-76
2023/05/28 03:17:56;;;;;;;18.25;6.03;;;;;;;7.81;100.00;101738.16;5029622;28;20402;-73
2023/05/28 03:20:25;;;;;;;15.20;6.35;;;;;;;7.84;100.00;101734.41;5036174;28;20045;-73
2023/05/28 03:22:56;;;;;;;14.35;6.55;;;;;;;7.91;100.00;101730.28;5028187;28;20037;-73
2023/05/28 03:25:21;;;;;;;12.15;5.95;;;;;;;7.95;100.00;101726.41;5046536;28;20437;-73
2023/05/28 03:27:46;;;;;;;12.47;6.33;;;;;;;7.97;100.00;101719.19;5047321;28;20025;-73
2023/05/28 03:30:14;;;;;;;16.03;5.93;;;;;;;8.01;100.00;101719.78;5056753;28;20278;-74
2023/05/28 03:32:46;;;;;;;14.60;5.53;;;;;;;8.03;100.00;101704.56;5047375;28;20028;-76
2023/05/28 03:35:11;;;;;;;12.43;5.50;;;;;;;8.04;100.00;101704.41;5056435;28;20031;-76
2023/05/28 03:37:37;;;;;;;19.33;7.07;;;;;;;8.14;100.00;101704.53;5032108;28;20468;-76
2023/05/28 03:40:04;;;;;;;14.63;5.97;;;;;;;8.19;100.00;101701.50;5047663;28;20040;-73
2023/05/28 03:42:29;;;;;;;14.40;5.60;;;;;;;8.18;100.00;101692.69;5047272;28;20032;-73
2023/05/28 03:44:55;;;;;;;12.90;5.43;;;;;;;8.30;100.00;101688.16;5047207;28;20032;-73
2023/05/28 03:47:21;;;;;;;15.83;6.53;;;;;;;8.41;100.00;101693.50;5049409;28;20132;-73
2023/05/28 03:49:47;;;;;;;;;;;;;;;8.58;100.00;101709.91;5047106;28;20078;-73
2023/05/28 03:52:12;;;;;;;;;;;;;;;8.70;100.00;101706.22;5057794;28;19916;-73
2023/05/28 03:54:45;;;;;;;19.15;6.75;;;;;;;8.83;100.00;101701.59;5038837;28;19935;-76
2023/05/28 03:57:15;;;;;;;17.60;6.30;;;;;;;8.88;100.00;101707.38;5047722;28;20024;-73
2023/05/28 03:59:41;;;;;;;12.52;5.55;;;;;;;8.92;100.00;101704.44;5026628;28;20029;-76
2023/05/28 04:02:07;;;;;;;22.08;6.90;;;;;;;9.15;100.00;101714.00;5056233;28;20035;-76
2023/05/28 04:04:32;;;;;;;18.42;6.43;;;;;;;9.36;100.00;101726.50;5058463;28;20483;-76
2023/05/28 04:06:58;;;;;;;13.75;6.53;;;;;;;9.46;100.00;101714.94;5028962;28;20099;-76
2023/05/28 04:09:23;;;;;;;11.23;6.30;;;;;;;9.61;100.00;101726.09;5030458;28;20127;-75
2023/05/28 04:11:49;;;;;;;13.90;6.33;;;;;;;9.70;100.00;101722.63;5041513;28;20192;-75
2023/05/28 04:14:15;;;;;;;16.70;5.80;;;;;;;9.65;100.00;101708.00;5027821;28;20202;-76
2023/05/28 04:16:41;;;;;;;16.30;6.35;;;;;;;9.83;100.00;101713.53;5048175;28;20503;-76
2023/05/28 04:19:06;;;;;;;14.90;5.60;;;;;;;9.94;100.00;101721.47;5049375;28;20032;-76
2023/05/28 04:21:32;;;;;;;11.27;5.10;;;;;;;10.01;100.00;101717.28;5038249;28;20025;-76
2023/05/28 04:23:59;;;;;;;13.45;5.57;;;;;;;10.18;100.00;101730.94;5032362;28;20156;-76
2023/05/28 04:26:24;;;;;;;12.60;5.20;;;;;;;10.14;100.00;101703.72;5042600;28;20182;-77
2023/05/28 04:28:50;;;;;;;15.27;5.70;;;;;;;10.31;100.00;101715.56;5033150;28;20056;-76
2023/05/28 04:31:16;;;;;;;12.70;4.90;;;;;;;10.32;100.00;101718.13;5027739;28;20025;-76
2023/05/28 04:33:46;;;;;;;14.10;5.80;;;;;;;10.55;100.00;101726.69;5033806;28;20028;-76
2023/05/28 04:36:13;;;;;;;12.93;5.68;;;;;;;10.56;100.00;101714.22;5025864;28;20021;-76
2023/05/28 04:38:39;;;;;;;20.90;6.40;;;;;;;10.58;100.00;101698.88;5043502;28;20498;-77
2023/05/28 04:41:05;;;;;;;;;;;;;;;10.75;100.00;101708.03;5028321;28;20384;-76
2023/05/28 04:43:31;;;;;;;;;;;;;;;10.80;100.00;101697.78;5036909;28;20022;-74
2023/05/28 04:45:58;;;;;;;13.63;5.03;;;;;;;10.85;100.00;101676.81;5027057;28;19942;-74
2023/05/28 04:48:25;;;;;;;18.88;5.80;;;;;;;10.93;100.00;101681.44;5033379;28;20848;-76
2023/05/28 04:50:51;;;;;;;11.77;6.57;;;;;;;10.95;100.00;101655.44;5045304;28;20504;-76
2023/05/28 04:53:17;;;;;;;;;;;;;;;11.22;100.00;101681.41;5030236;28;20439;-77
2023/05/28 04:55:45;;;;;;;;;;;;;;;11.30;100.00;101678.84;5044444;28;19908;-77
2023/05/28 04:58:11;;;;;;;13.35;5.47;;;;;;;11.37;100.00;101666.59;5049022;28;19934;-76
2023/05/28 05:00:40;;;;;;;20.20;5.65;;;;;;;11.41;100.00;101661.81;5029196;28;20029;-77
2023/05/28 05:03:08;;;;;;;14.65;5.88;;;;;;;11.46;100.00;101639.97;5046500;28;20483;-77
2023/05/28 05:05:34;;;;;;;10.77;4.93;;;;;;;11.69;100.00;101652.00;5040385;28;20594;-76
2023/05/28 05:08:01;;;;;;;10.65;5.47;;;;;;;11.84;100.00;101645.13;5024214;28;20033;-76
2023/05/28 05:10:27;;;;;;;14.63;4.88;;;;;;;12.00;100.00;101631.16;5023202;28;20552;-77
2023/05/28 05:12:52;;;;;;;12.32;5.88;;;;;;;12.20;100.00;101631.88;5059848;22;20040;-76
2023/05/28 05:15:18;;;;;;;13.37;5.93;;;;;;;12.33;100.00;101614.59;5052819;28;20417;-76
2023/05/28 05:17:43;;;;;;;13.90;4.73;;;;;;;12.40;100.00;101608.47;5086371;28;20031;-75
2023/05/28 05:20:09;;;;;;;11.15;5.28;;;;;;;12.51;100.00;101606.56;5086739;28;20119;-75
2023/05/28 05:22:35;;;;;;;15.10;5.90;;;;;;;12.64;100.00;101602.50;5066658;28;20426;-75
2023/05/28 05:25:01;;;;;;;;;;;;;;;12.82;100.00;101588.22;5050655;28;20493;-76
2023/05/28 05:27:28;;;;;;;;;;;;;;;13.16;100.00;101579.38;5050741;28;19952;-76
2023/05/28 05:29:56;;;;;;;13.63;5.28;;;;;;;13.26;100.00;101545.25;5066705;28;19930;-76
2023/05/28 05:32:21;;;;;;;10.65;5.70;;;;;;;13.29;100.00;101512.75;5067642;28;20086;-75
2023/05/28 05:34:47;;;;;;;16.52;5.43;;;;;;;13.43;100.00;101514.00;5066703;28;20025;-75
2023/05/28 05:37:25;;;;;;;11.73;4.57;;;;;;;13.36;100.00;101478.94;5067948;28;20101;-75
2023/05/28 05:40:20;;;;;;;11.00;4.90;;;;;;;13.41;100.00;101465.88;5066306;28;20021;-75
2023/05/28 05:42:59;;;;;;;8.55;5.20;;;;;;;13.53;100.00;101463.72;5066731;28;20624;-75
2023/05/28 05:45:24;;;;;;;11.57;5.73;;;;;;;13.47;100.00;101442.94;5066494;28;20105;-75
2023/05/28 05:47:51;;;;;;;11.80;4.68;;;;;;;13.53;100.00;101431.53;5049549;28;20024;-75
2023/05/28 05:50:17;;;;;;;;;;;;;;;13.64;100.00;101438.44;5067003;28;20509;-76
2023/05/28 05:52:43;;;;;;;;;;;;;;;13.74;100.00;101420.31;5066469;28;20030;-75
2023/05/28 05:55:10;;;;;;;10.52;4.88;;;;;;;13.67;100.00;101396.03;5066334;28;20321;-75
2023/05/28 05:57:36;;;;;;;9.13;4.27;;;;;;;13.79;100.00;101372.38;5066556;28;20017;-75
2023/05/28 06:00:06;;;;;;;;;;;;;;;14.58;100.00;101404.81;5066023;28;20029;-75
2023/05/28 06:02:39;;;;;;;9.85;4.63;;;;;;;15.18;100.00;101277.81;5066245;28;19916;-74
2023/05/28 06:05:10;;;;;;;11.45;4.75;;;;;;;15.24;100.00;101135.53;5049552;28;20039;-77
2023/05/28 06:07:56;;;;;;;11.75;4.60;;;;;;;14.96;100.00;101039.34;5064334;28;20037;-76
2023/05/28 06:10:51;;;;;;;8.50;3.95;;;;;;;14.69;100.00;100891.16;5066035;28;20088;-76
2023/05/28 06:13:17;;;;;;;9.35;4.30;;;;;;;14.86;100.00;100846.09;5065136;28;20558;-76
2023/05/28 06:15:43;;;;;;;7.15;3.55;;;;;;;14.86;100.00;100805.75;5065153;28;20024;-75
2023/05/28 06:18:08;;;;;;;8.50;4.15;;;;;;;15.00;100.00;100742.22;5044857;28;20025;-75
2023/05/28 06:20:34;;;;;;;11.90;5.97;;;;;;;14.96;100.00;100741.78;5062675;28;20028;-75
2023/05/28 06:23:00;;;;;;;11.77;4.95;;;;;;;14.69;100.00;100703.03;5047927;28;20515;-76
2023/05/28 06:25:26;;;;;;;10.32;5.30;;;;;;;14.63;100.00;100686.84;5048410;28;20017;-76
2023/05/28 06:27:52;;;;;;;9.80;5.68;;;;;;;14.29;100.00;100537.94;5058985;28;20483;-76
2023/05/28 06:30:17;;;;;;;7.20;4.13;;;;;;;14.26;100.00;100514.97;5048475;28;20255;-77
2023/05/28 06:32:43;;;;;;;6.80;4.38;;;;;;;14.26;100.00;100503.41;5063993;28;20043;-77
2023/05/28 06:35:09;;;;;;;7.07;4.23;;;;;;;15.14;100.00;100604.19;5047194;28;20398;-76
2023/05/28 06:37:34;;;;;;;8.73;4.40;;;;;;;15.79;100.00;100528.63;5064493;28;20032;-76
2023/05/28 06:40:00;;;;;;;11.53;4.93;;;;;;;16.03;100.00;100494.91;5046370;28;20033;-76
2023/05/28 06:42:26;;;;;;;9.43;5.13;;;;;;;16.79;100.00;100370.56;5064611;28;20384;-75
2023/05/28 06:45:08;;;;;;;6.97;4.60;;;;;;;17.64;97.60;100307.44;5064659;28;20044;-76
2023/05/28 06:47:34;;;;;;;9.38;4.93;;;;;;;17.57;91.66;99970.09;5064449;28;20087;-75
2023/05/28 06:49:59;;;;;;;6.38;4.00;;;;;;;17.28;90.43;99953.66;5048591;28;20101;-76
2023/05/28 06:52:26;;;;;;;8.70;5.37;;;;;;;17.75;90.49;100174.44;5048365;28;20439;-76
2023/05/28 06:54:52;;;;;;;10.75;4.90;;;;;;;17.45;90.09;100163.50;5058005;28;20059;-76
2023/05/28 06:57:17;;;;;;;8.95;4.97;;;;;;;17.91;89.37;100245.94;5058144;28;20106;-76
2023/05/28 07:00:13;;;;;;;11.77;4.95;;;;;;;17.64;87.75;100151.69;5064046;28;20039;-76
2023/05/28 07:03:10;;;;;;;12.98;5.68;;;;;;;17.66;87.41;100214.38;5003483;28;20423;-76
2023/05/28 07:05:59;;;;;;;12.73;5.80;;;;;;;17.71;85.72;100168.63;5000787;28;20080;-77
2023/05/28 07:08:25;;;;;;;12.80;4.40;;;;;;;17.89;85.59;100261.56;5003426;28;20066;-76
2023/05/28 07:10:51;;;;;;;9.40;4.65;;;;;;;18.11;82.49;100046.66;4986818;28;20092;-76
2023/05/28 07:13:16;;;;;;;7.25;4.32;;;;;;;18.41;83.53;100294.47;4986365;28;20477;-76
2023/05/28 07:15:42;;;;;;;8.17;4.27;;;;;;;19.23;80.76;100250.78;4986886;28;20044;-76
2023/05/28 07:18:07;;;;;;;8.47;4.10;;;;;;;19.49;79.50;100243.28;5002813;28;20293;-77
2023/05/28 07:20:32;;;;;;;9.70;4.20;;;;;;;19.66;75.69;99997.00;4987626;28;20101;-77
2023/05/28 07:23:11;;;;;;;;;;;;;;;19.78;75.04;100073.66;5003313;28;20080;-75
2023/05/28 07:25:37;;;;;;;9.05;4.28;;;;;;;19.91;73.62;100027.34;5003146;28;20295;-77
2023/05/28 07:28:02;;;;;;;;;;;;;;;19.95;73.90;100134.16;4988099;28;20022;-77
2023/05/28 07:30:32;;;;;;;9.00;4.78;;;;;;;20.14;72.45;100096.88;4987646;28;19914;-77
2023/05/28 07:33:01;;;;;;;10.25;4.38;;;;;;;19.85;73.25;100149.34;4972536;28;20052;-77
2023/05/28 07:35:27;;;;;;;9.93;4.15;;;;;;;20.16;73.62;100338.66;4988531;28;20022;-77
2023/05/28 07:37:55;;;;;;;8.27;4.23;;;;;;;20.29;72.61;100291.50;5001831;28;20049;-76
2023/05/28 07:40:21;;;;;;;8.30;4.88;;;;;;;20.59;70.16;100116.97;5059581;28;20362;-77
2023/05/28 07:42:48;;;;;;;9.15;4.43;;;;;;;20.44;69.59;100103.94;5069321;28;20584;-75
2023/05/28 07:45:14;;;;;;;10.32;4.93;;;;;;;20.61;68.37;100045.16;5048279;28;20033;-76
2023/05/28 07:47:41;;;;;;;7.53;3.97;;;;;;;20.83;65.94;99889.78;5048462;28;20109;-76
2023/05/28 07:50:13;;;;;;;7.30;4.20;;;;;;;21.03;65.22;99910.94;5065215;28;20129;-76
2023/05/28 07:52:56;;;;;;;6.35;3.67;;;;;;;21.01;63.84;99809.97;5065711;28;20093;-77
2023/05/28 07:55:21;;;;;;;6.05;3.97;;;;;;;21.06;63.95;99965.53;5047164;28;20040;-77
2023/05/28 07:57:47;;;;;;;9.23;3.92;;;;;;;21.93;62.36;99990.22;5063250;28;20540;-76
2023/05/28 08:00:15;;;;;;;8.23;4.60;;;;;;;21.30;61.53;99767.13;5056435;28;20295;-77
2023/05/28 08:02:51;;;;;;;10.73;4.20;;;;;;;20.96;61.60;99770.03;5050125;28;20625;-77
2023/05/28 08:05:18;;;;;;;8.95;4.47;;;;;;;20.92;61.27;99751.81;5063424;28;20384;-78
2023/05/28 08:07:44;;;;;;;7.82;3.40;;;;;;;21.13;60.85;99812.56;5063386;28;20028;-78
2023/05/28 08:10:09;;;;;;;9.77;3.67;;;;;;;21.47;59.75;99816.75;5063347;28;20131;-77
2023/05/28 08:12:35;;;;;;;9.27;3.28;;;;;;;20.80;59.29;99570.22;5062618;28;20024;-77
2023/05/28 08:15:00;;;;;;;8.20;4.03;;;;;;;21.44;57.42;99605.44;5046443;28;20293;-76
2023/05/28 08:17:31;;;;;;;6.25;3.08;;;;;;;21.20;56.97;99468.50;5046738;28;20060;-76
2023/05/28 08:20:04;;;;;;;8.13;3.15;;;;;;;21.20;57.37;99587.91;5063314;28;20036;-77
2023/05/28 08:22:52;;;;;;;9.48;3.58;;;;;;;21.10;57.71;99644.81;5037990;28;20094;-78
2023/05/28 08:25:18;;;;;;;12.10;3.70;;;;;;;21.28;56.83;99544.81;5046560;28;20036;-76
2023/05/28 08:27:44;;;;;;;7.80;3.25;;;;;;;21.37;56.15;99525.31;5063289;28;20024;-76
2023/05/28 08:30:10;;;;;;;6.03;3.40;;;;;;;21.66;55.81;99607.25;5063262;28;20115;-78
2023/05/28 08:32:43;;;;;;;6.25;3.00;;;;;;;21.80;54.10;99490.78;5050639;28;20744;-79
2023/05/28 08:35:09;;;;;;;7.38;2.72;;;;;;;21.93;55.62;99727.44;5063102;28;20123;-78
2023/05/28 08:37:34;;;;;;;8.88;3.45;;;;;;;22.58;55.03;99871.44;5063062;28;20102;-76
2023/05/28 08:40:17;;;;;;;7.57;3.45;;;;;;;22.90;53.91;99799.75;5046631;28;20111;-78
2023/05/28 08:42:43;;;;;;;6.75;3.00;;;;;;;22.62;53.18;99546.13;5062620;28;20193;-78
2023/05/28 08:45:09;;;;;;;9.38;3.45;;;;;;;22.61;53.11;99592.63;5046406;28;20475;-79
2023/05/28 08:47:37;;;;;;;7.93;3.90;;;;;;;22.29;52.10;99423.19;5046230;28;20035;-77
2023/05/28 08:50:15;;;;;;;;;;;;;;;22.87;53.04;99775.78;5057937;28;20024;-78
2023/05/28 08:52:51;;;;;;;4.38;2.40;;;;;;;22.93;51.09;99546.94;5064132;28;19912;-77
2023/05/28 08:55:18;;;;;;;7.72;2.72;;;;;;;23.42;50.78;99613.59;5046319;28;20029;-78
2023/05/28 08:57:47;;;;;;;5.68;2.83;;;;;;;22.89;49.97;99328.13;5065558;28;20368;-77
2023/05/28 09:00:13;;;;;;;7.65;3.75;;;;;;;23.30;49.19;99387.09;5066938;28;20249;-77
2023/05/28 09:03:07;;;;;;;6.78;2.85;;;;;;;23.64;48.82;99443.56;5065856;28;20035;-77
2023/05/28 09:05:37;;;;;;;8.45;4.03;;;;;;;22.88;48.95;99217.69;5066395;28;20502;-77
2023/05/28 09:08:10;;;;;;;6.72;3.20;;;;;;;22.56;48.16;98951.59;5049278;28;20538;-77
2023/05/28 09:10:37;;;;;;;8.75;3.08;;;;;;;22.85;48.14;99141.25;5066707;28;20029;-77
2023/05/28 09:13:04;;;;;;;7.00;3.30;;;;;;;23.03;47.96;99235.84;5065143;28;20123;-78
2023/05/28 09:15:31;;;;;;;6.15;3.85;;;;;;;22.81;47.66;99066.75;5049863;28;20542;-77
2023/05/28 09:18:01;;;;;;;9.18;3.15;;;;;;;23.60;46.86;99307.91;5049584;28;20103;-77
2023/05/28 09:20:28;;;;;;;7.07;3.78;;;;;;;23.76;46.87;99319.56;5049661;28;20031;-76
2023/05/28 09:23:02;;;;;;;8.45;3.78;;;;;;;24.05;46.51;99335.13;5066957;28;20028;-79
2023/05/28 09:25:50;;;;;;;8.68;3.35;;;;;;;24.03;44.54;98980.22;5066209;28;20044;-77
2023/05/28 09:28:19;;;;;;;8.27;4.03;;;;;;;23.93;44.98;99062.94;5065979;28;20024;-80
2023/05/28 09:30:45;;;;;;;11.37;3.47;;;;;;;24.06;43.90;98865.16;5049234;28;20102;-76
2023/05/28 09:33:10;;;;;;;8.00;3.80;;;;;;;24.50;43.52;99062.22;5066686;28;20047;-77
2023/05/28 09:35:36;;;;;;;7.63;3.90;;;;;;;24.77;42.74;99013.22;5049392;28;20016;-77
2023/05/28 09:38:09;;;;;;;8.43;3.40;;;;;;;24.32;42.66;98799.28;5065486;28;20475;-78
2023/05/28 09:40:39;;;;;;;5.88;3.45;;;;;;;24.59;42.42;98872.19;5049228;28;20062;-76
2023/05/28 09:43:06;;;;;;;10.38;3.72;;;;;;;24.80;41.33;98807.13;5066149;28;20571;-77
2023/05/28 09:45:33;;;;;;;8.65;4.15;;;;;;;23.98;42.00;98634.19;5065594;28;20020;-77
2023/05/28 09:47:59;;;;;;;8.75;3.50;;;;;;;24.67;41.75;98900.69;5066717;28;20039;-78
2023/05/28 09:50:24;;;;;;;7.93;3.65;;;;;;;24.99;41.38;98916.22;5065635;28;20020;-76
2023/05/28 09:52:54;;;;;;;10.23;3.72;;;;;;;24.34;41.30;98661.53;5066453;28;20525;-77
2023/05/28 09:55:23;;;;;;;7.95;3.80;;;;;;;23.97;41.90;98649.72;5048977;28;20085;-76
2023/05/28 09:58:04;;;;;;;7.95;4.07;;;;;;;25.15;41.66;99086.81;5065440;28;20112;-77
2023/05/28 10:00:42;;;;;;;9.55;4.15;;;;;;;25.37;40.41;98976.94;5051957;28;20071;-77
2023/05/28 10:03:22;;;;;;;7.95;4.43;;;;;;;24.92;40.07;98627.31;5048289;28;20446;-77
2023/05/28 10:05:55;;;;;;;6.68;4.13;;;;;;;25.38;39.71;98806.47;5047576;28;20506;-77
2023/05/28 10:08:21;;;;;;;9.48;4.07;;;;;;;25.43;39.56;98781.78;5047872;28;20503;-76
2023/05/28 10:10:51;;;;;;;6.57;3.53;;;;;;;25.27;37.27;98281.59;5054283;28;20391;-77
2023/05/28 10:13:16;;;;;;;8.90;4.07;;;;;;;25.28;37.32;98291.38;5064439;28;20098;-78
2023/05/28 10:15:43;;;;;;;8.57;4.00;;;;;;;25.63;36.63;98348.78;5066768;28;20426;-76
2023/05/28 10:18:08;;;;;;;7.93;3.85;;;;;;;25.72;36.65;98406.19;5054828;28;20102;-78
2023/05/28 10:20:34;;;;;;;6.70;3.67;;;;;;;25.92;35.20;98221.66;5065336;28;20051;-78
2023/05/28 10:23:00;;;;;;;5.85;3.40;;;;;;;25.67;35.17;98090.22;5047714;28;20310;-77
2023/05/28 10:25:25;;;;;;;7.10;3.58;;;;;;;25.80;34.36;97938.13;5065777;28;20020;-77
2023/05/28 10:27:58;;;;;;;7.15;3.85;;;;;;;25.93;34.05;97984.69;5065760;28;20044;-78
2023/05/28 10:30:37;;;;;;;4.88;3.10;;;;;;;25.07;33.72;97640.75;5065267;28;20028;-78
2023/05/28 10:33:07;;;;;;;5.80;3.55;;;;;;;25.42;34.25;97884.31;5064911;28;20070;-77
2023/05/28 10:35:50;;;;;;;5.90;3.47;;;;;;;25.64;34.47;98082.66;5048082;28;20029;-76
2023/05/28 10:38:15;;;;;;;8.07;4.03;;;;;;;26.17;35.09;98446.13;5064625;28;20482;-76
2023/05/28 10:40:41;;;;;;;8.40;3.97;;;;;;;25.74;35.29;98302.03;5064857;28;20106;-76
2023/05/28 10:43:38;;;;;;;8.73;3.77;;;;;;;25.93;35.68;98493.88;5047368;28;20286;-77
2023/05/28 10:46:10;;;;;;;6.70;3.30;;;;;;;25.63;37.08;98605.59;5063881;28;20037;-77
2023/05/28 10:48:40;;;;;;;6.07;3.35;;;;;;;24.34;36.58;97903.56;5047841;28;20037;-75
2023/05/28 10:51:06;;;;;;;7.68;3.72;;;;;;;24.54;37.77;98408.59;5064120;28;20398;-77
2023/05/28 10:53:32;;;;;;;8.75;3.38;;;;;;;24.64;37.29;98340.94;5047423;28;20024;-77
2023/05/28 10:55:58;;;;;;;7.28;3.40;;;;;;;24.94;36.80;98428.56;5047821;28;20434;-76
2023/05/28 10:58:34;;;;;;;7.10;3.75;;;;;;;24.56;36.12;98043.59;5064203;28;20459;-77
2023/05/28 11:01:02;;;;;;;5.05;3.20;;;;;;;24.95;35.52;98143.59;5064125;28;20044;-77
2023/05/28 11:03:45;;;;;;;5.00;3.67;;;;;;;25.08;34.62;98005.38;5063551;28;20078;-79
2023/05/28 11:06:12;;;;;;;8.07;3.20;;;;;;;25.26;34.54;98061.56;5047482;28;20471;-76
2023/05/28 11:08:45;;;;;;;5.32;3.13;;;;;;;25.26;32.85;97654.78;5047631;28;20028;-76
2023/05/28 11:11:12;;;;;;;4.05;2.60;;;;;;;25.31;32.83;97751.25;5058125;28;20032;-77
2023/05/28 11:13:38;;;;;;;5.90;2.80;;;;;;;25.01;31.70;97345.44;5093903;22;20118;-72
2023/05/28 11:16:11;;;;;;;4.38;2.88;;;;;;;25.13;31.50;97428.47;5061982;28;20109;-72
2023/05/28 11:18:37;;;;;;;3.97;2.40;;;;;;;25.56;30.85;97556.31;5067153;28;20035;-73
2023/05/28 11:21:07;;;;;;;5.38;2.83;;;;;;;25.21;31.04;97403.81;5062196;28;20062;-71
2023/05/28 11:23:39;;;;;;;4.40;2.63;;;;;;;25.33;31.12;97585.94;5063501;28;20067;-72
2023/05/28 11:26:20;;;;;;;6.65;2.60;;;;;;;25.06;32.41;97746.41;5056476;28;20029;-72
2023/05/28 11:28:47;;;;;;;4.97;2.58;;;;;;;25.80;32.10;98063.81;5063724;28;20391;-71
2023/05/28 11:31:13;;;;;;;8.57;2.65;;;;;;;26.27;31.92;98175.03;5047503;28;20027;-73
2023/05/28 11:33:38;;;;;;;4.57;2.57;;;;;;;25.55;32.89;97969.09;5044647;28;20040;-74
2023/05/28 11:36:04;;;;;;;3.72;2.30;;;;;;;25.63;33.84;98358.91;5062731;28;20267;-72